Time;durP1;ratioP1;P1;durP2;ratioP2;P2;SDS_P1;SDS_P2;PMS_P1;PMS_P2;Temp;Humidity;BMP_temperature;BMP_pressure;BME280_temperature;BME280_humidity;BME280_pressure;Samples;Min_cycle;Max_cycle;Signal;HPM_P1;HPM_P2
2023/09/29 00:02:20;;;;;;;;;;;;;;;;;;5032586;28;20385;-74
2023/09/29 00:04:48;;;;;;;;;;;;;;;;;;5050610;28;19947;-74
2023/09/29 00:07:13;;;;;;;;;;;;;;;;;;5051384;28;19921;-73
2023/09/29 00:09:38;;;;;;;;;;;;;;;;;;5025542;28;20790;-74
2023/09/29 00:12:04;;;;;;;;;;;;;;;;;;5031995;28;20407;-74
2023/09/29 00:14:32;;;;;;;;;;;;;;;;;;5034363;28;19920;-74
2023/09/29 00:17:00;;;;;;;;;;;;;;;;;;5015271;28;20389;-74
2023/09/29 00:19:34;;;;;;;;;;;;;;;;;;5049099;28;19994;-74
2023/09/29 00:22:02;;;;;;;;;;;;;;;;;;5016297;28;20005;-74
2023/09/29 00:24:31;;;;;;;;;;;;;;;;;;5014922;28;19924;-75
2023/09/29 00:26:59;;;;;;;;;;;;;;;;;;5051376;28;20019;-74
2023/09/29 00:29:27;;;;;;;;;;;;;;;;;;5013725;28;19935;-74
2023/09/29 00:31:57;;;;;;;;;;;;;;;;;;5012128;28;20634;-74
2023/09/29 00:34:25;;;;;;;;;;;;;;;;;;5026906;28;19978;-74
2023/09/29 00:36:51;;;;;;;;;;;;;;;;;;5013482;28;20214;-74
2023/09/29 00:39:18;;;;;;;;;;;;;;;;;;5029561;28;19943;-75
2023/09/29 00:41:46;;;;;;;;;;;;;;;;;;5013321;28;19917;-74
2023/09/29 00:44:15;;;;;;;;;;;;;;;;;;5030578;28;20391;-74
2023/09/29 00:46:41;;;;;;;;;;;;;;;;;;5015875;28;19919;-71
2023/09/29 00:49:13;;;;;;;;;;;;;;;;;;5028891;28;20310;-74
2023/09/29 00:51:44;;;;;;;;;;;;;;;;;;5047627;28;19928;-74
2023/09/29 00:54:10;;;;;;;;;;;;;;;;;;5048979;28;19920;-74
2023/09/29 00:56:35;;;;;;;;;;;;;;;;;;5014405;28;19951;-75
2023/09/29 00:59:00;;;;;;;;;;;;;;;;;;5027780;28;19931;-75
2023/09/29 01:01:26;;;;;;;;;;;;;;;;;;5049675;28;19932;-74
2023/09/29 01:03:54;;;;;;;;;;;;;;;;;;5010422;28;19920;-72
2023/09/29 01:06:19;;;;;;;;;;;;;;;;;;5048846;28;19921;-73
2023/09/29 01:08:45;;;;;;;;;;;;;;;;;;5048240;28;21822;-73
2023/09/29 01:11:10;;;;;;;;;;;;;;;;;;5027265;28;20384;-74
2023/09/29 01:13:41;;;;;;;;;;;;;;;;;;5049428;28;19955;-73
2023/09/29 01:16:09;;;;;;;;;;;;;;;;;;5049303;28;19977;-73
2023/09/29 01:18:34;;;;;;;;;;;;;;;;;;5025627;28;19920;-73
2023/09/29 01:21:03;;;;;;;;;;;;;;;;;;5027911;28;20295;-74
2023/09/29 01:23:30;;;;;;;;;;;;;;;;;;5025059;28;19927;-74
2023/09/29 01:25:56;;;;;;;;;;;;;;;;;;5029669;28;20002;-74
2023/09/29 01:28:24;;;;;;;;;;;;;;;;;;5011254;28;20003;-74
2023/09/29 01:33:42;;;;;;;;;;;;;;;;;;5044522;28;19946;-73
2023/09/29 01:36:08;;;;;;;;;;;;;;;;;;5027655;28;19921;-73
2023/09/29 01:38:34;;;;;;;;;;;;;;;;;;5049523;28;19921;-73
2023/09/29 01:40:59;;;;;;;;;;;;;;;;;;5024002;28;19940;-73
2023/09/29 01:43:24;;;;;;;;;;;;;;;;;;5030051;28;20427;-74
2023/09/29 01:45:52;;;;;;;;;;;;;;;;;;5027308;28;19927;-74
2023/09/29 01:48:17;;;;;;;;;;;;;;;;;;5030488;28;19916;-74
2023/09/29 01:50:43;;;;;;;;;;;;;;;;;;5026336;28;20448;-73
2023/09/29 01:53:12;;;;;;;;;;;;;;;;;;5045989;28;19978;-73
2023/09/29 01:55:37;;;;;;;;;;;;;;;;;;5010530;28;19924;-73
2023/09/29 01:58:05;;;;;;;;;;;;;;;;;;5030635;28;20382;-73
2023/09/29 02:00:30;;;;;;;;;;;;;;;;;;5016564;28;19921;-74
2023/09/29 02:03:00;;;;;;;;;;;;;;;;;;5035882;28;19927;-74
2023/09/29 02:05:25;;;;;;;;;;;;;;;;;;5035115;28;21747;-73
2023/09/29 02:07:54;;;;;;;;;;;;;;;;;;5050197;28;19970;-74
2023/09/29 02:10:20;;;;;;;;;;;;;;;;;;5031305;28;19928;-73
2023/09/29 02:12:46;;;;;;;;;;;;;;;;;;5044836;28;20474;-74
2023/09/29 02:15:12;;;;;;;;;;;;;;;;;;5049398;28;20295;-75
2023/09/29 02:17:37;;;;;;;;;;;;;;;;;;5051148;28;19960;-74
2023/09/29 02:20:15;;;;;;;;;;;;;;;;;;5025025;28;19983;-75
2023/09/29 02:22:43;;;;;;;;;;;;;;;;;;5009616;28;19947;-74
2023/09/29 02:25:14;;;;;;;;;;;;;;;;;;5012617;28;19960;-75
2023/09/29 02:27:42;;;;;;;;;;;;;;;;;;5032774;28;19927;-74
2023/09/29 02:30:10;;;;;;;;;;;;;;;;;;5012837;28;19916;-74
2023/09/29 02:32:38;;;;;;;;;;;;;;;;;;5031074;28;19917;-73
2023/09/29 02:35:07;;;;;;;;;;;;;;;;;;5047187;28;19928;-74
2023/09/29 02:37:35;;;;;;;;;;;;;;;;;;5013758;28;20404;-74
2023/09/29 02:40:02;;;;;;;;;;;;;;;;;;5024294;28;19925;-74
2023/09/29 02:42:27;;;;;;;;;;;;;;;;;;5051730;28;19924;-73
2023/09/29 02:44:52;;;;;;;;;;;;;;;;;;5015285;28;20299;-73
2023/09/29 02:47:20;;;;;;;;;;;;;;;;;;5048976;28;19923;-73
2023/09/29 02:49:46;;;;;;;;;;;;;;;;;;5031904;28;19920;-74
2023/09/29 02:52:15;;;;;;;;;;;;;;;;;;5045012;28;19974;-73
2023/09/29 02:54:43;;;;;;;;;;;;;;;;;;5014346;28;19921;-73
2023/09/29 02:57:08;;;;;;;;;;;;;;;;;;5031206;28;20200;-73
2023/09/29 02:59:37;;;;;;;;;;;;;;;;;;5031591;28;19940;-73
2023/09/29 03:02:03;;;;;;;;;;;;;;;;;;5029579;28;19921;-73
2023/09/29 03:04:28;;;;;;;;;;;;;;;;;;5013488;28;19921;-73
2023/09/29 03:06:56;;;;;;;;;;;;;;;;;;5031327;28;19950;-73
2023/09/29 03:09:25;;;;;;;;;;;;;;;;;;5016302;28;19917;-73
2023/09/29 03:11:51;;;;;;;;;;;;;;;;;;5031882;28;20422;-73
2023/09/29 03:14:17;;;;;;;;;;;;;;;;;;5015178;28;19917;-73
2023/09/29 03:16:45;;;;;;;;;;;;;;;;;;5012392;28;19921;-73
2023/09/29 03:19:10;;;;;;;;;;;;;;;;;;5030171;28;19921;-73
2023/09/29 03:21:35;;;;;;;;;;;;;;;;;;5030233;28;19920;-74
2023/09/29 03:24:01;;;;;;;;;;;;;;;;;;5013585;28;19917;-72
2023/09/29 03:26:26;;;;;;;;;;;;;;;;;;5026720;28;19928;-72
2023/09/29 03:28:53;;;;;;;;;;;;;;;;;;5031250;28;19920;-73
2023/09/29 03:31:18;;;;;;;;;;;;;;;;;;5030563;28;19928;-75
2023/09/29 03:33:44;;;;;;;;;;;;;;;;;;5014477;28;19916;-73
2023/09/29 03:36:11;;;;;;;;;;;;;;;;;;5030055;28;19921;-73
2023/09/29 03:38:38;;;;;;;;;;;;;;;;;;5031225;28;19971;-73
2023/09/29 03:41:06;;;;;;;;;;;;;;;;;;5029205;28;20078;-73
2023/09/29 03:43:31;;;;;;;;;;;;;;;;;;5031046;28;19955;-70
2023/09/29 03:45:56;;;;;;;;;;;;;;;;;;5032773;28;19917;-73
2023/09/29 03:48:25;;;;;;;;;;;;;;;;;;5029172;28;20012;-74
2023/09/29 03:50:50;;;;;;;;;;;;;;;;;;5029797;28;20015;-73
2023/09/29 03:53:16;;;;;;;;;;;;;;;;;;5048427;28;21977;-74
2023/09/29 03:55:45;;;;;;;;;;;;;;;;;;5034026;28;19962;-71
2023/09/29 03:58:10;;;;;;;;;;;;;;;;;;5029663;28;19921;-75
2023/09/29 04:00:38;;;;;;;;;;;;;;;;;;5049318;28;19924;-71
2023/09/29 04:03:04;;;;;;;;;;;;;;;;;;5032363;28;20296;-73
2023/09/29 04:05:32;;;;;;;;;;;;;;;;;;5030274;28;19921;-73
2023/09/29 04:07:57;;;;;;;;;;;;;;;;;;5029805;28;20029;-72
2023/09/29 04:10:23;;;;;;;;;;;;;;;;;;5049113;28;19920;-73
2023/09/29 04:12:51;;;;;;;;;;;;;;;;;;5051872;28;19920;-73
2023/09/29 04:15:16;;;;;;;;;;;;;;;;;;5013995;28;20299;-71
2023/09/29 04:17:44;;;;;;;;;;;;;;;;;;5013225;28;19942;-73
2023/09/29 04:20:09;;;;;;;;;;;;;;;;;;5048895;28;20870;-72
2023/09/29 04:22:39;;;;;;;;;;;;;;;;;;5013339;28;19966;-72
2023/09/29 04:25:05;;;;;;;;;;;;;;;;;;5053327;28;19920;-72
2023/09/29 04:27:30;;;;;;;;;;;;;;;;;;5031440;28;19920;-72
2023/09/29 04:29:58;;;;;;;;;;;;;;;;;;5032510;28;19920;-73
2023/09/29 04:32:23;;;;;;;;;;;;;;;;;;5013740;28;19917;-73
2023/09/29 04:34:51;;;;;;;;;;;;;;;;;;5053432;28;19927;-74
2023/09/29 04:37:19;;;;;;;;;;;;;;;;;;5031785;28;19970;-73
2023/09/29 04:39:47;;;;;;;;;;;;;;;;;;5014991;28;20920;-72
2023/09/29 04:42:13;;;;;;;;;;;;;;;;;;5051770;28;20054;-73
2023/09/29 04:44:41;;;;;;;;;;;;;;;;;;5033554;28;19916;-73
2023/09/29 04:47:07;;;;;;;;;;;;;;;;;;5028190;28;19948;-72
2023/09/29 04:49:38;;;;;;;;;;;;;;;;;;5029434;28;20005;-74
2023/09/29 04:52:03;;;;;;;;;;;;;;;;;;5030138;28;19931;-72
2023/09/29 04:54:28;;;;;;;;;;;;;;;;;;5031005;28;20295;-73
2023/09/29 04:56:56;;;;;;;;;;;;;;;;;;5012922;28;19921;-72
2023/09/29 04:59:24;;;;;;;;;;;;;;;;;;5031429;28;19967;-73
2023/09/29 05:01:53;;;;;;;;;;;;;;;;;;5050582;28;20019;-74
2023/09/29 05:04:24;;;;;;;;;;;;;;;;;;5011567;28;19920;-72
2023/09/29 05:06:49;;;;;;;;;;;;;;;;;;5048318;28;20031;-74
2023/09/29 05:09:15;;;;;;;;;;;;;;;;;;5012162;28;19921;-73
2023/09/29 05:11:40;;;;;;;;;;;;;;;;;;5034302;28;20379;-71
2023/09/29 05:14:09;;;;;;;;;;;;;;;;;;5049349;28;19940;-73
2023/09/29 05:16:34;;;;;;;;;;;;;;;;;;5030608;28;19916;-73
2023/09/29 05:19:02;;;;;;;;;;;;;;;;;;5027806;28;19920;-72
2023/09/29 05:21:32;;;;;;;;;;;;;;;;;;5027480;28;19924;-73
2023/09/29 05:24:03;;;;;;;;;;;;;;;;;;5027149;28;19931;-73
2023/09/29 05:26:31;;;;;;;;;;;;;;;;;;5028073;28;20011;-73
2023/09/29 05:28:57;;;;;;;;;;;;;;;;;;5028712;28;19916;-70
2023/09/29 05:31:24;;;;;;;;;;;;;;;;;;5048100;28;19932;-73
2023/09/29 05:33:54;;;;;;;;;;;;;;;;;;5011263;28;20049;-73
2023/09/29 05:36:21;;;;;;;;;;;;;;;;;;5021974;28;19924;-71
2023/09/29 05:38:47;;;;;;;;;;;;;;;;;;5047925;28;19916;-73
2023/09/29 05:41:12;;;;;;;;;;;;;;;;;;5012531;28;19965;-71
2023/09/29 05:43:47;;;;;;;;;;;;;;;;;;5027209;28;20546;-71
2023/09/29 05:46:14;;;;;;;;;;;;;;;;;;5014397;28;20019;-75
2023/09/29 05:48:39;;;;;;;;;;;;;;;;;;5048007;28;20452;-73
2023/09/29 05:51:05;;;;;;;;;;;;;;;;;;5012277;28;20390;-72
2023/09/29 05:53:30;;;;;;;;;;;;;;;;;;5014650;28;19920;-73
2023/09/29 05:55:55;;;;;;;;;;;;;;;;;;5048806;28;19954;-73
2023/09/29 05:58:24;;;;;;;;;;;;;;;;;;5012631;28;19920;-71
2023/09/29 06:00:49;;;;;;;;;;;;;;;;;;5028696;28;19931;-69
2023/09/29 06:03:15;;;;;;;;;;;;;;;;;;5030450;28;20414;-73
2023/09/29 06:05:41;;;;;;;;;;;;;;;;;;5027522;28;19917;-73
2023/09/29 06:08:09;;;;;;;;;;;;;;;;;;5011724;28;19921;-72
2023/09/29 06:10:37;;;;;;;;;;;;;;;;;;5025511;28;19916;-73
2023/09/29 06:13:03;;;;;;;;;;;;;;;;;;5029330;28;19920;-73
2023/09/29 06:15:31;;;;;;;;;;;;;;;;;;5011699;28;19959;-73
2023/09/29 06:18:00;;;;;;;;;;;;;;;;;;5016966;28;19921;-72
2023/09/29 06:20:25;;;;;;;;;;;;;;;;;;5053607;28;19928;-73
2023/09/29 06:22:55;;;;;;;;;;;;;;;;;;5033083;28;20264;-73
2023/09/29 06:25:26;;;;;;;;;;;;;;;;;;5035305;28;19916;-74
2023/09/29 06:27:56;;;;;;;;;;;;;;;;;;5015977;28;19916;-74
2023/09/29 06:30:22;;;;;;;;;;;;;;;;;;5033111;28;19920;-74
2023/09/29 06:32:49;;;;;;;;;;;;;;;;;;5019310;28;19960;-73
2023/09/29 06:35:16;;;;;;;;;;;;;;;;;;5055721;28;19920;-74
2023/09/29 06:37:41;;;;;;;;;;;;;;;;;;5056102;28;19917;-74
2023/09/29 06:40:10;;;;;;;;;;;;;;;;;;5037877;28;20027;-73
2023/09/29 06:42:38;;;;;;;;;;;;;;;;;;5037693;28;20268;-73
2023/09/29 06:45:04;;;;;;;;;;;;;;;;;;5053236;28;19924;-73
2023/09/29 06:47:29;;;;;;;;;;;;;;;;;;5022437;28;20391;-73
2023/09/29 06:49:57;;;;;;;;;;;;;;;;;;5033102;28;20406;-71
2023/09/29 06:52:22;;;;;;;;;;;;;;;;;;5009688;28;19983;-73
2023/09/29 06:54:48;;;;;;;;;;;;;;;;;;4995380;28;20443;-73
2023/09/29 06:57:16;;;;;;;;;;;;;;;;;;5012440;28;19917;-73
2023/09/29 06:59:43;;;;;;;;;;;;;;;;;;5010721;28;19920;-74
2023/09/29 07:02:11;;;;;;;;;;;;;;;;;;5011223;28;19968;-73
2023/09/29 07:04:37;;;;;;;;;;;;;;;;;;5007284;28;19924;-73
2023/09/29 07:07:02;;;;;;;;;;;;;;;;;;5008941;28;19923;-72
2023/09/29 07:09:30;;;;;;;;;;;;;;;;;;4995538;28;19928;-72
2023/09/29 07:11:58;;;;;;;;;;;;;;;;;;5009046;28;19921;-73
2023/09/29 07:14:26;;;;;;;;;;;;;;;;;;5011423;28;21515;-72
2023/09/29 07:16:55;;;;;;;;;;;;;;;;;;5027141;28;20603;-72
2023/09/29 07:19:20;;;;;;;;;;;;;;;;;;5011643;28;19921;-72
2023/09/29 07:21:47;;;;;;;;;;;;;;;;;;4992992;28;20301;-72
2023/09/29 07:24:13;;;;;;;;;;;;;;;;;;5012974;28;19928;-73
2023/09/29 07:26:38;;;;;;;;;;;;;;;;;;5011167;28;19920;-73
2023/09/29 07:29:04;;;;;;;;;;;;;;;;;;5025804;28;19921;-70
2023/09/29 07:31:29;;;;;;;;;;;;;;;;;;5011010;28;19921;-72
2023/09/29 07:34:00;;;;;;;;;;;;;;;;;;5028327;28;20006;-72
2023/09/29 07:36:29;;;;;;;;;;;;;;;;;;5009799;28;20335;-72
2023/09/29 07:38:54;;;;;;;;;;;;;;;;;;5010520;28;19952;-72
2023/09/29 07:41:22;;;;;;;;;;;;;;;;;;5007532;28;19921;-72
2023/09/29 07:43:47;;;;;;;;;;;;;;;;;;4994447;28;19921;-71
2023/09/29 07:46:13;;;;;;;;;;;;;;;;;;5009187;28;19924;-71
2023/09/29 07:48:38;;;;;;;;;;;;;;;;;;5013659;28;20859;-72
2023/09/29 07:51:04;;;;;;;;;;;;;;;;;;5010293;28;19924;-70
2023/09/29 07:53:29;;;;;;;;;;;;;;;;;;5010380;28;19928;-72
2023/09/29 07:55:54;;;;;;;;;;;;;;;;;;4995988;28;20380;-72
2023/09/29 07:58:23;;;;;;;;;;;;;;;;;;5012965;28;19917;-71
2023/09/29 08:00:51;;;;;;;;;;;;;;;;;;5016129;28;19921;-68
2023/09/29 08:03:16;;;;;;;;;;;;;;;;;;5010713;28;20004;-71
2023/09/29 08:05:41;;;;;;;;;;;;;;;;;;4999374;28;20513;-72
2023/09/29 08:08:09;;;;;;;;;;;;;;;;;;4993297;28;20110;-72
2023/09/29 08:10:37;;;;;;;;;;;;;;;;;;5015291;28;19921;-72
2023/09/29 08:13:02;;;;;;;;;;;;;;;;;;5018134;28;20399;-71
2023/09/29 08:15:28;;;;;;;;;;;;;;;;;;4993859;28;19928;-68
2023/09/29 08:17:56;;;;;;;;;;;;;;;;;;5015184;28;20024;-71
2023/09/29 08:20:22;;;;;;;;;;;;;;;;;;5014690;28;20425;-70
2023/09/29 08:22:47;;;;;;;;;;;;;;;;;;4993962;28;19929;-71
2023/09/29 08:25:12;;;;;;;;;;;;;;;;;;5018248;28;19917;-71
2023/09/29 08:27:37;;;;;;;;;;;;;;;;;;4997115;28;20371;-70
2023/09/29 08:30:12;;;;;;;;;;;;;;;;;;5018472;28;19951;-68
2023/09/29 08:32:42;;;;;;;;;;;;;;;;;;5019332;28;20327;-69
2023/09/29 08:35:12;;;;;;;;;;;;;;;;;;5015696;28;19927;-70
2023/09/29 08:37:38;;;;;;;;;;;;;;;;;;5020695;28;19921;-71
2023/09/29 08:40:03;;;;;;;;;;;;;;;;;;5020496;28;19935;-71
2023/09/29 08:42:29;;;;;;;;;;;;;;;;;;5019250;28;20011;-71
2023/09/29 08:44:57;;;;;;;;;;;;;;;;;;4998302;28;20807;-71
2023/09/29 08:47:22;;;;;;;;;;;;;;;;;;5017734;28;19921;-70
2023/09/29 08:49:50;;;;;;;;;;;;;;;;;;5020567;28;19953;-69
2023/09/29 08:52:15;;;;;;;;;;;;;;;;;;5033348;28;20073;-69
2023/09/29 08:54:45;;;;;;;;;;;;;;;;;;5020157;28;20021;-70
2023/09/29 08:57:13;;;;;;;;;;;;;;;;;;5037285;28;20363;-71
2023/09/29 08:59:50;;;;;;;;;;;;;;;;;;5033218;28;20007;-71
2023/09/29 09:02:17;;;;;;;;;;;;;;;;;;5041371;28;19921;-67
2023/09/29 09:04:43;;;;;;;;;;;;;;;;;;5034427;28;19920;-68
2023/09/29 09:07:08;;;;;;;;;;;;;;;;;;5035984;28;20119;-72
2023/09/29 09:09:36;;;;;;;;;;;;;;;;;;5038431;28;20383;-68
2023/09/29 09:12:06;;;;;;;;;;;;;;;;;;5039681;28;19920;-70
2023/09/29 09:14:34;;;;;;;;;;;;;;;;;;5053874;28;20432;-69
2023/09/29 09:17:05;;;;;;;;;;;;;;;;;;5034575;28;19917;-69
2023/09/29 09:19:30;;;;;;;;;;;;;;;;;;5037123;28;20089;-69
2023/09/29 09:21:55;;;;;;;;;;;;;;;;;;5017626;28;19920;-70
2023/09/29 09:24:21;;;;;;;;;;;;;;;;;;5036927;28;20375;-70
2023/09/29 09:26:46;;;;;;;;;;;;;;;;;;5038814;28;19912;-70
2023/09/29 09:29:19;;;;;;;;;;;;;;;;;;5036317;28;20008;-69
2023/09/29 09:31:47;;;;;;;;;;;;;;;;;;5035884;28;19927;-71
2023/09/29 09:34:15;;;;;;;;;;;;;;;;;;5054553;28;20309;-71
2023/09/29 09:36:40;;;;;;;;;;;;;;;;;;5051776;28;19920;-69
2023/09/29 09:39:07;;;;;;;;;;;;;;;;;;5036473;28;19920;-70
2023/09/29 09:41:32;;;;;;;;;;;;;;;;;;5052594;28;19997;-71
2023/09/29 09:43:58;;;;;;;;;;;;;;;;;;5036914;28;19920;-68
2023/09/29 09:46:24;;;;;;;;;;;;;;;;;;5033972;28;19920;-71
2023/09/29 09:48:49;;;;;;;;;;;;;;;;;;5019901;28;19928;-71
2023/09/29 09:51:17;;;;;;;;;;;;;;;;;;5050584;28;20648;-69
2023/09/29 09:53:42;;;;;;;;;;;;;;;;;;5016023;28;20753;-70
2023/09/29 09:56:10;;;;;;;;;;;;;;;;;;5014002;28;20091;-71
2023/09/29 09:58:38;;;;;;;;;;;;;;;;;;5035731;28;20290;-72
2023/09/29 10:01:03;;;;;;;;;;;;;;;;;;5032042;28;19920;-71
2023/09/29 10:03:29;;;;;;;;;;;;;;;;;;5031933;28;20350;-74
2023/09/29 10:05:54;;;;;;;;;;;;;;;;;;5049758;28;21764;-69
2023/09/29 10:08:21;;;;;;;;;;;;;;;;;;5028975;28;19920;-68
2023/09/29 10:10:46;;;;;;;;;;;;;;;;;;5047335;28;19920;-68
2023/09/29 10:13:11;;;;;;;;;;;;;;;;;;5016355;28;20500;-67
2023/09/29 10:15:37;;;;;;;;;;;;;;;;;;5052722;28;19916;-69
2023/09/29 10:18:05;;;;;;;;;;;;;;;;;;5014618;28;20510;-69
2023/09/29 10:20:33;;;;;;;;;;;;;;;;;;5030875;28;19920;-69
2023/09/29 10:22:58;;;;;;;;;;;;;;;;;;5047771;28;19920;-68
2023/09/29 10:25:26;;;;;;;;;;;;;;;;;;5014425;28;19920;-69
2023/09/29 10:27:56;;;;;;;;;;;;;;;;;;5031470;28;20523;-69
2023/09/29 10:30:22;;;;;;;;;;;;;;;;;;5031296;28;19920;-70
2023/09/29 10:32:50;;;;;;;;;;;;;;;;;;5030528;28;20001;-68
2023/09/29 10:35:24;;;;;;;;;;;;;;;;;;5047318;28;20295;-67
2023/09/29 10:37:54;;;;;;;;;;;;;;;;;;5029519;28;19965;-69
2023/09/29 10:40:20;;;;;;;;;;;;;;;;;;5030936;28;20307;-67
2023/09/29 10:42:48;;;;;;;;;;;;;;;;;;5050189;28;19956;-69
2023/09/29 10:45:14;;;;;;;;;;;;;;;;;;5028361;28;20160;-67
2023/09/29 10:47:42;;;;;;;;;;;;;;;;;;5029200;28;19938;-74
2023/09/29 10:50:10;;;;;;;;;;;;;;;;;;5011860;28;19928;-69
2023/09/29 10:52:40;;;;;;;;;;;;;;;;;;5032202;28;19931;-70
2023/09/29 10:55:06;;;;;;;;;;;;;;;;;;5031531;28;19920;-69
2023/09/29 10:57:34;;;;;;;;;;;;;;;;;;5031253;28;19986;-70
2023/09/29 11:00:02;;;;;;;;;;;;;;;;;;5052992;28;19994;-67
2023/09/29 11:02:29;;;;;;;;;;;;;;;;;;5033536;28;20626;-69
2023/09/29 11:04:57;;;;;;;;;;;;;;;;;;5036792;28;20000;-69
2023/09/29 11:07:23;;;;;;;;;;;;;;;;;;5037428;28;19928;-67
2023/09/29 11:09:51;;;;;;;;;;;;;;;;;;5055290;28;19921;-68
2023/09/29 11:12:19;;;;;;;;;;;;;;;;;;5033240;28;20708;-68
2023/09/29 11:14:45;;;;;;;;;;;;;;;;;;5054802;28;19921;-74
2023/09/29 11:17:13;;;;;;;;;;;;;;;;;;5054045;28;20284;-74
2023/09/29 11:19:41;;;;;;;;;;;;;;;;;;5030045;28;20186;-75
2023/09/29 11:22:07;;;;;;;;;;;;;;;;;;5032883;28;20291;-74
2023/09/29 11:24:34;;;;;;;;;;;;;;;;;;5051865;28;19928;-73
2023/09/29 11:27:00;;;;;;;;;;;;;;;;;;5032545;28;19921;-73
2023/09/29 11:29:29;;;;;;;;;;;;;;;;;;5032081;28;19916;-73
2023/09/29 11:31:54;;;;;;;;;;;;;;;;;;5030388;28;20392;-74
2023/09/29 11:34:19;;;;;;;;;;;;;;;;;;5029670;28;19947;-74
2023/09/29 11:36:45;;;;;;;;;;;;;;;;;;5030682;28;20027;-72
2023/09/29 11:39:16;;;;;;;;;;;;;;;;;;5052847;28;19920;-72
2023/09/29 11:41:45;;;;;;;;;;;;;;;;;;5051583;28;19962;-72
2023/09/29 11:44:11;;;;;;;;;;;;;;;;;;5052666;28;19924;-69
2023/09/29 11:46:37;;;;;;;;;;;;;;;;;;5015021;28;21900;-71
2023/09/29 11:49:02;;;;;;;;;;;;;;;;;;5034734;28;19916;-68
2023/09/29 11:51:28;;;;;;;;;;;;;;;;;;5051008;28;21877;-68
2023/09/29 11:53:53;;;;;;;;;;;;;;;;;;5033760;28;19920;-68
2023/09/29 11:56:19;;;;;;;;;;;;;;;;;;5031423;28;21807;-69
2023/09/29 11:58:44;;;;;;;;;;;;;;;;;;5053009;28;19916;-69
2023/09/29 12:01:10;;;;;;;;;;;;;;;;;;5051492;28;19931;-69
2023/09/29 12:03:35;;;;;;;;;;;;;;;;;;5015667;28;19920;-70
2023/09/29 12:06:03;;;;;;;;;;;;;;;;;;5050208;28;19916;-69
2023/09/29 12:08:29;;;;;;;;;;;;;;;;;;5049540;28;20098;-67
2023/09/29 12:10:55;;;;;;;;;;;;;;;;;;5050453;28;19916;-66
2023/09/29 12:13:23;;;;;;;;;;;;;;;;;;5050586;28;19920;-64
2023/09/29 12:15:51;;;;;;;;;;;;;;;;;;5027555;28;19931;-62
2023/09/29 12:18:19;;;;;;;;;;;;;;;;;;5015521;28;20636;-62
2023/09/29 12:20:44;;;;;;;;;;;;;;;;;;5009224;28;19924;-63
2023/09/29 12:23:10;;;;;;;;;;;;;;;;;;5030298;28;19916;-64
2023/09/29 12:25:41;;;;;;;;;;;;;;;;;;5049793;28;19982;-64
2023/09/29 12:28:09;;;;;;;;;;;;;;;;;;5031973;28;19927;-64
2023/09/29 12:30:34;;;;;;;;;;;;;;;;;;5050308;28;19978;-66
2023/09/29 12:33:03;;;;;;;;;;;;;;;;;;5029444;28;20786;-65
2023/09/29 12:35:29;;;;;;;;;;;;;;;;;;5029585;28;19916;-65
2023/09/29 12:37:56;;;;;;;;;;;;;;;;;;5029083;28;20733;-64
2023/09/29 12:40:25;;;;;;;;;;;;;;;;;;5029656;28;20596;-65
2023/09/29 12:42:54;;;;;;;;;;;;;;;;;;5032891;28;19946;-67
2023/09/29 12:45:21;;;;;;;;;;;;;;;;;;5028919;28;19920;-64
2023/09/29 12:47:49;;;;;;;;;;;;;;;;;;5030529;28;19920;-64
2023/09/29 12:50:18;;;;;;;;;;;;;;;;;;5049653;28;20806;-65
2023/09/29 12:52:46;;;;;;;;;;;;;;;;;;5012949;28;19939;-65
2023/09/29 12:55:14;;;;;;;;;;;;;;;;;;5030264;28;19943;-65
2023/09/29 12:57:40;;;;;;;;;;;;;;;;;;5013182;28;20256;-64
2023/09/29 13:00:05;;;;;;;;;;;;;;;;;;5030010;28;19936;-63
2023/09/29 13:02:31;;;;;;;;;;;;;;;;;;5027143;28;19916;-63
2023/09/29 13:04:59;;;;;;;;;;;;;;;;;;5026639;28;19928;-62
2023/09/29 13:07:25;;;;;;;;;;;;;;;;;;5030443;28;19955;-63
2023/09/29 13:09:50;;;;;;;;;;;;;;;;;;5013059;28;19920;-63
2023/09/29 13:12:20;;;;;;;;;;;;;;;;;;5026317;28;20194;-62
2023/09/29 13:14:47;;;;;;;;;;;;;;;;;;5009782;28;19921;-63
2023/09/29 13:17:16;;;;;;;;;;;;;;;;;;5012609;28;19920;-64
2023/09/29 13:19:41;;;;;;;;;;;;;;;;;;5025799;28;19927;-63
2023/09/29 13:22:07;;;;;;;;;;;;;;;;;;5010807;28;19917;-63
2023/09/29 13:24:32;;;;;;;;;;;;;;;;;;5045204;28;20007;-67
2023/09/29 13:26:58;;;;;;;;;;;;;;;;;;5011860;28;19924;-63
2023/09/29 13:29:23;;;;;;;;;;;;;;;;;;5012628;28;20505;-63
2023/09/29 13:31:53;;;;;;;;;;;;;;;;;;5025819;28;20046;-63
2023/09/29 13:34:19;;;;;;;;;;;;;;;;;;5017155;28;20403;-63
2023/09/29 13:36:45;;;;;;;;;;;;;;;;;;5012686;28;19916;-63
2023/09/29 13:39:15;;;;;;;;;;;;;;;;;;5029106;28;20567;-63
2023/09/29 13:41:44;;;;;;;;;;;;;;;;;;5041149;28;19935;-63
2023/09/29 13:44:11;;;;;;;;;;;;;;;;;;5027123;28;20015;-64
2023/09/29 13:46:39;;;;;;;;;;;;;;;;;;5026962;28;19952;-62
2023/09/29 13:49:06;;;;;;;;;;;;;;;;;;5028025;28;19917;-63
2023/09/29 13:51:32;;;;;;;;;;;;;;;;;;5047781;28;19950;-64
2023/09/29 13:53:57;;;;;;;;;;;;;;;;;;5045652;28;19927;-64
2023/09/29 13:56:27;;;;;;;;;;;;;;;;;;5025528;28;19920;-63
2023/09/29 13:58:53;;;;;;;;;;;;;;;;;;5007904;28;19962;-67
2023/09/29 14:01:18;;;;;;;;;;;;;;;;;;5027123;28;19924;-65
2023/09/29 14:04:26;;;;;;;;;;;;;;;;;;5027729;28;21842;-62
2023/09/29 14:06:40;;;;;;;;;;;;;;;;;;5017301;28;19927;-64
2023/09/29 14:09:12;;;;;;;;;;;;;;;;;;5024061;28;19928;-62
2023/09/29 14:11:38;;;;;;;;;;;;;;;;;;5027944;28;20002;-64
2023/09/29 14:14:03;;;;;;;;;;;;;;;;;;5027823;28;19921;-63
2023/09/29 14:16:31;;;;;;;;;;;;;;;;;;5047810;28;19916;-63
2023/09/29 14:21:50;;;;;;;;;;;;;;;;;;5025829;28;19927;-62
2023/09/29 14:24:25;;;;;;;;;;;;;;;;;;5010709;28;19920;-64
2023/09/29 14:27:21;;;;;;;;;;;;;;;;;;5029719;28;19931;-63
2023/09/29 14:29:47;;;;;;;;;;;;;;;;;;5024919;28;19916;-62
2023/09/29 14:32:12;;;;;;;;;;;;;;;;;;5031615;28;19921;-62
2023/09/29 14:34:40;;;;;;;;;;;;;;;;;;5045635;28;20047;-63
2023/09/29 14:37:05;;;;;;;;;;;;;;;;;;5024576;28;19916;-63
2023/09/29 14:39:36;;;;;;;;;;;;;;;;;;5046785;28;20379;-61
2023/09/29 14:42:03;;;;;;;;;;;;;;;;;;5036417;28;20011;-63
2023/09/29 14:44:28;;;;;;;;;;;;;;;;;;5011907;28;19920;-63
2023/09/29 14:46:57;;;;;;;;;;;;;;;;;;5033165;28;19921;-63
2023/09/29 14:49:25;;;;;;;;;;;;;;;;;;5030453;28;19917;-63
2023/09/29 14:51:53;;;;;;;;;;;;;;;;;;5013697;28;19939;-62
2023/09/29 14:54:18;;;;;;;;;;;;;;;;;;5030108;28;19949;-62
2023/09/29 14:57:08;;;;;;;;;;;;;;;;;;5025188;28;19928;-63
2023/09/29 14:59:33;;;;;;;;;;;;;;;;;;5011537;28;19931;-62
2023/09/29 15:02:04;;;;;;;;;;;;;;;;;;5029728;28;19965;-63
2023/09/29 15:04:29;;;;;;;;;;;;;;;;;;5012036;28;20053;-60
2023/09/29 15:06:57;;;;;;;;;;;;;;;;;;5029513;28;19945;-62
2023/09/29 15:09:26;;;;;;;;;;;;;;;;;;5012786;28;19924;-62
2023/09/29 15:12:03;;;;;;;;;;;;;;;;;;5014248;28;19959;-62
2023/09/29 15:14:31;;;;;;;;;;;;;;;;;;5027734;28;19995;-62
2023/09/29 15:16:59;;;;;;;;;;;;;;;;;;5050093;28;19923;-62
2023/09/29 15:19:24;;;;;;;;;;;;;;;;;;5048374;28;19921;-63
2023/09/29 15:21:49;;;;;;;;;;;;;;;;;;5011952;28;19931;-62
2023/09/29 15:24:15;;;;;;;;;;;;;;;;;;5013580;28;19921;-62
2023/09/29 15:26:43;;;;;;;;;;;;;;;;;;5027933;28;19921;-62
2023/09/29 15:29:21;;;;;;;;;;;;;;;;;;;;;
2023/09/29 15:31:52;;;;;;;;;;;;;;;;;;5047553;28;19921;-61
2023/09/29 15:34:23;;;;;;;;;;;;;;;;;;5048615;28;19926;-61
2023/09/29 15:36:48;;;;;;;;;;;;;;;;;;5027534;28;19917;-62
2023/09/29 15:39:17;;;;;;;;;;;;;;;;;;5029555;28;19917;-61
2023/09/29 15:41:52;;;;;;;;;;;;;;;;;;5010028;28;20400;-61
2023/09/29 15:44:20;;;;;;;;;;;;;;;;;;5028855;28;20074;-61
2023/09/29 15:46:46;;;;;;;;;;;;;;;;;;5011887;28;19965;-61
2023/09/29 15:49:17;;;;;;;;;;;;;;;;;;5015481;28;19920;-59
2023/09/29 15:51:48;;;;;;;;;;;;;;;;;;5028566;28;19924;-61
2023/09/29 15:54:16;;;;;;;;;;;;;;;;;;5048840;28;20009;-62
2023/09/29 15:56:48;;;;;;;;;;;;;;;;;;5028952;28;19920;-61
2023/09/29 15:59:13;;;;;;;;;;;;;;;;;;5048257;28;20073;-62
2023/09/29 16:01:41;;;;;;;;;;;;;;;;;;5048598;28;20365;-61
2023/09/29 16:04:06;;;;;;;;;;;;;;;;;;5049278;28;20062;-61
2023/09/29 16:06:34;;;;;;;;;;;;;;;;;;5043851;28;20033;-62
2023/09/29 16:08:59;;;;;;;;;;;;;;;;;;5046320;28;20263;-62
2023/09/29 16:11:27;;;;;;;;;;;;;;;;;;5028579;28;20617;-61
2023/09/29 16:13:55;;;;;;;;;;;;;;;;;;5010847;28;19967;-61
2023/09/29 16:16:23;;;;;;;;;;;;;;;;;;5045443;28;19926;-60
2023/09/29 16:18:49;;;;;;;;;;;;;;;;;;5014803;28;19920;-62
2023/09/29 16:21:17;;;;;;;;;;;;;;;;;;5027034;28;19921;-61
2023/09/29 16:23:50;;;;;;;;;;;;;;;;;;5030243;28;19927;-61
2023/09/29 16:26:19;;;;;;;;;;;;;;;;;;5014154;28;19922;-62
2023/09/29 16:28:45;;;;;;;;;;;;;;;;;;5030726;28;19920;-62
2023/09/29 16:31:11;;;;;;;;;;;;;;;;;;5027287;28;20899;-61
2023/09/29 16:33:36;;;;;;;;;;;;;;;;;;5028744;28;19924;-61
2023/09/29 16:36:04;;;;;;;;;;;;;;;;;;5025066;28;21149;-61
2023/09/29 16:38:29;;;;;;;;;;;;;;;;;;5050113;28;19927;-61
2023/09/29 16:40:57;;;;;;;;;;;;;;;;;;5028202;28;19920;-61
2023/09/29 16:43:23;;;;;;;;;;;;;;;;;;5023661;28;19989;-61
2023/09/29 16:45:50;;;;;;;;;;;;;;;;;;5044892;28;20370;-61
2023/09/29 16:48:17;;;;;;;;;;;;;;;;;;5011761;28;19921;-61
2023/09/29 16:50:45;;;;;;;;;;;;;;;;;;5008825;28;21649;-61
2023/09/29 16:53:10;;;;;;;;;;;;;;;;;;5030606;28;20019;-61